Time;durP1;ratioP1;P1;durP2;ratioP2;P2;SDS_P1;SDS_P2;PMS_P1;PMS_P2;Temp;Humidity;BMP_temperature;BMP_pressure;BME280_temperature;BME280_humidity;BME280_pressure;Samples;Min_cycle;Max_cycle;Signal;HPM_P1;HPM_P2
2022/06/28 00:01:48;;;;;;;21.10;14.80;;;;;;;13.63;90.13;101941.28;5013596;28;20026;-52
2022/06/28 00:04:13;;;;;;;19.77;15.27;;;;;;;13.61;90.68;101943.53;5014143;28;20033;-47
2022/06/28 00:06:39;;;;;;;19.65;14.43;;;;;;;13.60;90.83;101946.63;5014162;28;20104;-51
2022/06/28 00:09:04;;;;;;;20.45;14.90;;;;;;;13.55;90.61;101940.00;5014407;28;20026;-51
2022/06/28 00:11:29;;;;;;;21.15;14.73;;;;;;;13.51;91.13;101943.69;5014204;28;20502;-51
2022/06/28 00:13:55;;;;;;;20.73;15.07;;;;;;;13.48;91.41;101947.06;5014522;28;20030;-47
2022/06/28 00:16:21;;;;;;;20.05;14.18;;;;;;;13.46;91.17;101952.09;5013957;28;20022;-51
2022/06/28 00:18:46;;;;;;;21.30;15.02;;;;;;;13.41;91.41;101950.22;5012547;28;20050;-48
2022/06/28 00:21:12;;;;;;;21.27;14.48;;;;;;;13.43;90.86;101947.13;5013771;28;20308;-51
2022/06/28 00:23:39;;;;;;;22.00;15.40;;;;;;;13.38;91.64;101959.13;5013802;28;20038;-51
2022/06/28 00:26:05;;;;;;;21.35;14.48;;;;;;;13.36;91.69;101950.25;5013355;28;20454;-49
2022/06/28 00:28:31;;;;;;;20.95;14.35;;;;;;;13.36;91.92;101945.53;5013380;28;20473;-48
2022/06/28 00:30:56;;;;;;;19.95;13.27;;;;;;;13.33;91.32;101940.56;5013800;28;20036;-47
2022/06/28 00:33:21;;;;;;;20.08;13.52;;;;;;;13.28;91.61;101951.72;5044855;28;20182;-50
2022/06/28 00:35:47;;;;;;;20.20;12.90;;;;;;;13.24;91.85;101947.91;5013273;28;20444;-47
2022/06/28 00:38:13;;;;;;;19.80;13.38;;;;;;;13.22;91.69;101950.16;5013712;28;20475;-48
2022/06/28 00:40:44;;;;;;;20.63;13.23;;;;;;;13.18;91.93;101955.47;5013810;28;20044;-48
2022/06/28 00:43:10;;;;;;;18.95;13.45;;;;;;;13.17;91.96;101956.59;5013757;28;20026;-49
2022/06/28 00:45:36;;;;;;;20.77;13.90;;;;;;;13.16;92.58;101959.69;5013332;28;20156;-51
2022/06/28 00:48:02;;;;;;;20.90;13.85;;;;;;;13.16;92.45;101959.69;5012721;28;20034;-48
2022/06/28 00:50:28;;;;;;;20.42;13.63;;;;;;;13.11;92.38;101964.16;5012925;28;20419;-48
2022/06/28 00:53:15;;;;;;;21.77;13.68;;;;;;;13.10;92.66;101954.16;5013416;28;20022;-49
2022/06/28 00:55:42;;;;;;;21.80;13.90;;;;;;;13.04;92.37;101952.59;5013654;28;20123;-53
2022/06/28 00:58:08;;;;;;;19.67;12.65;;;;;;;13.02;93.31;101959.56;5012672;28;20069;-48
2022/06/28 01:00:41;;;;;;;20.02;13.93;;;;;;;12.97;93.17;101965.16;5013105;28;20081;-50
2022/06/28 01:03:07;;;;;;;20.00;12.75;;;;;;;12.92;92.83;101953.00;5012602;28;20155;-47
2022/06/28 01:05:33;;;;;;;19.50;13.20;;;;;;;12.90;93.67;101962.72;5012849;28;20112;-47
2022/06/28 01:08:00;;;;;;;21.13;13.50;;;;;;;12.85;93.37;101957.25;5012324;28;20036;-49
2022/06/28 01:10:26;;;;;;;20.65;14.00;;;;;;;12.80;93.72;101960.91;5012603;28;20033;-48
2022/06/28 01:12:51;;;;;;;20.30;13.93;;;;;;;12.78;94.06;101961.22;5012783;28;20029;-50
2022/06/28 01:15:17;;;;;;;21.48;13.73;;;;;;;12.75;94.15;101964.56;5012844;28;20057;-47
2022/06/28 01:17:42;;;;;;;21.73;13.85;;;;;;;12.74;94.30;101971.22;5012863;28;20408;-47
2022/06/28 01:20:09;;;;;;;20.52;14.13;;;;;;;12.72;93.91;101970.69;5011572;28;20076;-47
2022/06/28 01:22:41;;;;;;;19.95;13.70;;;;;;;12.74;94.41;101974.00;5013011;28;20030;-51
2022/06/28 01:25:09;;;;;;;20.85;13.32;;;;;;;12.72;94.60;101965.13;5012923;28;20497;-52
2022/06/28 01:27:35;;;;;;;19.33;13.13;;;;;;;12.70;94.87;101974.91;5012658;28;20026;-52
2022/06/28 01:30:02;;;;;;;20.23;13.65;;;;;;;12.68;94.42;101975.19;5012006;28;20476;-51
2022/06/28 01:32:28;;;;;;;22.15;13.80;;;;;;;12.69;94.64;101970.47;5012480;28;20030;-49
2022/06/28 01:34:53;;;;;;;21.38;13.85;;;;;;;12.64;94.95;101971.34;5010747;28;20065;-50
2022/06/28 01:37:19;;;;;;;21.83;13.98;;;;;;;12.61;94.90;101975.53;5011250;28;20078;-48
2022/06/28 01:39:44;;;;;;;20.02;13.20;;;;;;;12.58;94.73;101978.88;5012441;28;20078;-50
2022/06/28 01:42:10;;;;;;;21.83;13.70;;;;;;;12.53;94.81;101975.31;5044598;28;20542;-51
2022/06/28 01:44:37;;;;;;;21.45;14.20;;;;;;;12.51;95.31;101983.94;5012526;28;20026;-50
2022/06/28 01:47:05;;;;;;;19.90;13.77;;;;;;;12.47;95.23;101982.88;5012523;28;20026;-51
2022/06/28 01:49:31;;;;;;;20.38;14.38;;;;;;;12.43;95.40;101979.84;5011791;28;20112;-51
2022/06/28 01:51:56;;;;;;;20.00;13.43;;;;;;;12.41;95.15;101981.25;5011223;28;20108;-51
2022/06/28 01:54:21;;;;;;;21.52;13.43;;;;;;;12.40;95.69;101982.38;5011711;28;20030;-48
2022/06/28 01:56:47;;;;;;;20.10;13.60;;;;;;;12.40;96.24;101982.38;5011396;28;20049;-52
2022/06/28 01:59:12;;;;;;;21.13;13.73;;;;;;;12.37;96.06;101985.75;5011246;28;20359;-48
2022/06/28 02:01:38;;;;;;;21.13;14.07;;;;;;;12.35;96.01;101988.81;5011713;28;20358;-52
2022/06/28 02:04:24;;;;;;;20.75;13.98;;;;;;;12.34;96.81;101987.13;5011442;28;20482;-50
2022/06/28 02:06:49;;;;;;;20.60;14.02;;;;;;;12.30;96.52;101991.63;5011839;28;20030;-51
2022/06/28 02:09:14;;;;;;;21.38;13.52;;;;;;;12.30;96.40;101994.41;5012064;28;20030;-48
2022/06/28 02:11:40;;;;;;;23.00;14.52;;;;;;;12.25;96.45;101986.09;5011674;28;20133;-50
2022/06/28 02:14:06;;;;;;;20.98;13.40;;;;;;;12.25;96.61;101988.88;5011293;28;20038;-48
2022/06/28 02:16:31;;;;;;;21.98;14.02;;;;;;;12.23;96.38;101991.13;5011147;28;20478;-51
2022/06/28 02:18:56;;;;;;;21.05;14.77;;;;;;;12.21;96.14;101998.91;5011325;28;20052;-50
2022/06/28 02:21:22;;;;;;;21.10;13.88;;;;;;;12.19;96.35;102003.91;5011252;28;20049;-49
2022/06/28 02:23:48;;;;;;;21.30;14.82;;;;;;;12.13;96.64;102003.97;5009745;28;20113;-48
2022/06/28 02:26:13;;;;;;;22.63;14.55;;;;;;;12.11;96.45;102002.56;5011784;28;20030;-51
2022/06/28 02:28:40;;;;;;;21.45;14.23;;;;;;;12.06;96.60;102009.00;5010999;28;20419;-49
2022/06/28 02:31:10;;;;;;;21.52;14.20;;;;;;;12.02;97.17;102010.69;5011158;28;20469;-48
2022/06/28 02:33:35;;;;;;;21.35;14.30;;;;;;;11.99;96.75;102017.66;5011336;28;20030;-51
2022/06/28 02:41:28;;;;;;;22.00;14.85;;;;;;;11.85;97.47;102017.41;5011070;28;20060;-51
2022/06/28 02:43:53;;;;;;;21.15;14.30;;;;;;;11.79;97.36;102020.50;5011065;28;20446;-51
2022/06/28 02:46:19;;;;;;;20.70;14.77;;;;;;;11.66;97.92;102019.19;5010491;28;20057;-49
2022/06/28 02:48:45;;;;;;;22.40;15.52;;;;;;;11.66;98.33;102022.78;5011088;28;20033;-48
2022/06/28 02:51:10;;;;;;;22.45;14.05;;;;;;;11.61;98.21;102036.69;5011145;28;20029;-48
2022/06/28 02:53:35;;;;;;;21.45;14.50;;;;;;;11.58;98.41;102034.47;5011290;28;20044;-47
2022/06/28 02:56:00;;;;;;;22.05;14.13;;;;;;;11.54;98.17;102048.06;5011009;28;20026;-48
2022/06/28 02:58:26;;;;;;;23.10;14.45;;;;;;;11.52;98.39;102046.69;5010975;28;20470;-50
2022/06/28 03:00:51;;;;;;;21.13;14.23;;;;;;;11.53;98.54;102054.72;5010419;28;20105;-49
2022/06/28 03:03:16;;;;;;;21.42;14.77;;;;;;;11.49;98.78;102048.06;5010038;28;20370;-50
2022/06/28 03:05:42;;;;;;;23.98;14.02;;;;;;;11.47;99.02;102052.25;5010720;28;20347;-51
2022/06/28 03:08:08;;;;;;;20.67;13.90;;;;;;;11.43;98.87;102051.97;5010930;28;20072;-49
2022/06/28 03:10:33;;;;;;;21.73;13.85;;;;;;;11.41;98.63;102054.19;5009693;28;20022;-48
2022/06/28 03:12:58;;;;;;;21.52;13.80;;;;;;;11.38;99.01;102050.06;5009813;28;20026;-49
2022/06/28 03:15:24;;;;;;;20.65;13.25;;;;;;;11.39;98.72;102048.94;5010618;28;20030;-48
2022/06/28 03:17:49;;;;;;;22.10;13.55;;;;;;;11.35;98.53;102058.91;5010605;28;20101;-47
2022/06/28 03:20:14;;;;;;;20.70;13.43;;;;;;;11.36;98.63;102057.00;5010492;28;20052;-48
2022/06/28 03:22:40;;;;;;;21.55;14.18;;;;;;;11.39;98.39;102068.34;5011033;28;20029;-49
2022/06/28 03:25:06;;;;;;;20.52;14.77;;;;;;;11.35;98.89;102066.41;5010679;28;20034;-48
2022/06/28 03:27:31;;;;;;;21.17;14.30;;;;;;;11.31;98.46;102062.53;5010928;28;20057;-48
2022/06/28 03:29:57;;;;;;;23.15;14.45;;;;;;;11.38;98.10;102066.69;5011112;28;20472;-47
2022/06/28 03:32:22;;;;;;;21.48;13.60;;;;;;;11.38;98.16;102065.88;5010395;28;20091;-47
2022/06/28 03:34:47;;;;;;;21.05;14.10;;;;;;;11.35;98.23;102072.78;5010847;28;20397;-48
2022/06/28 03:37:12;;;;;;;21.75;14.13;;;;;;;11.32;98.09;102076.13;5010916;28;20022;-51
2022/06/28 03:39:38;;;;;;;20.98;14.60;;;;;;;11.29;98.04;102071.13;5010364;28;20397;-51
2022/06/28 03:42:03;;;;;;;21.00;14.18;;;;;;;11.29;98.07;102071.13;5010685;28;20156;-47
2022/06/28 03:44:29;;;;;;;22.67;13.80;;;;;;;11.31;98.47;102073.63;5010491;28;20029;-51
2022/06/28 03:46:54;;;;;;;20.70;13.70;;;;;;;11.32;98.40;102076.13;5010333;28;20035;-49
2022/06/28 03:49:19;;;;;;;21.23;13.63;;;;;;;11.59;98.74;102077.69;5010108;28;20080;-48
2022/06/28 03:51:45;;;;;;;21.23;13.38;;;;;;;12.26;96.07;102073.78;5010415;28;20390;-51
2022/06/28 03:54:11;;;;;;;20.60;12.52;;;;;;;12.89;90.92;102075.78;5013276;28;20105;-52
2022/06/28 03:56:36;;;;;;;19.92;12.18;;;;;;;13.51;87.82;102077.13;5013974;28;20541;-49
2022/06/28 03:59:01;;;;;;;21.30;12.60;;;;;;;13.86;85.36;102075.00;5014014;28;20034;-50
2022/06/28 04:01:27;;;;;;;19.38;12.35;;;;;;;13.71;84.19;102071.31;5011645;28;20469;-51
2022/06/28 04:03:52;;;;;;;20.58;12.52;;;;;;;13.37;85.19;102076.97;5013500;28;20117;-51
2022/06/28 04:06:17;;;;;;;19.75;12.45;;;;;;;12.95;86.55;102080.16;5013293;28;20033;-50
2022/06/28 04:08:43;;;;;;;19.77;12.35;;;;;;;12.61;87.77;102077.44;5014121;28;20107;-51
2022/06/28 04:11:14;;;;;;;20.13;13.05;;;;;;;12.42;88.93;102077.28;5013812;28;20430;-50
2022/06/28 04:13:40;;;;;;;20.00;12.30;;;;;;;12.21;90.06;102077.41;5013235;28;20091;-47
2022/06/28 04:16:06;;;;;;;20.35;12.18;;;;;;;12.05;90.68;102084.19;5013629;28;20026;-49
2022/06/28 04:18:31;;;;;;;22.45;12.70;;;;;;;11.94;91.38;102086.16;5012894;28;20424;-46
2022/06/28 04:20:57;;;;;;;20.35;12.80;;;;;;;11.84;92.16;102081.47;5013607;28;20394;-47
2022/06/28 04:23:22;;;;;;;21.33;12.77;;;;;;;11.79;92.29;102092.59;5013568;28;20030;-48
2022/06/28 04:25:48;;;;;;;21.20;12.38;;;;;;;11.75;92.82;102091.50;5013698;28;20018;-48
2022/06/28 04:28:13;;;;;;;20.77;13.40;;;;;;;11.74;92.84;102090.69;5013358;28;20030;-47
2022/06/28 04:30:38;;;;;;;20.98;12.57;;;;;;;11.76;92.50;102082.06;5013525;28;20033;-49
2022/06/28 04:33:04;;;;;;;20.92;12.48;;;;;;;11.77;92.58;102086.50;5012483;28;20026;-48
2022/06/28 04:35:29;;;;;;;19.77;12.52;;;;;;;11.77;92.70;102087.31;5013306;28;20432;-47
2022/06/28 04:37:54;;;;;;;20.02;12.27;;;;;;;11.82;92.25;102089.22;5013318;28;20022;-48
2022/06/28 04:40:19;;;;;;;20.67;12.57;;;;;;;11.86;92.32;102082.84;5013247;28;20046;-48
2022/06/28 04:42:45;;;;;;;21.52;12.85;;;;;;;11.93;92.24;102084.50;5013235;28;20026;-48
2022/06/28 04:45:10;;;;;;;19.88;12.75;;;;;;;12.00;91.98;102090.56;5013186;28;20026;-51
2022/06/28 04:47:36;;;;;;;21.30;12.68;;;;;;;12.07;91.91;102084.72;5013396;28;20096;-50
2022/06/28 04:50:01;;;;;;;20.05;12.40;;;;;;;12.14;91.63;102080.50;5013498;28;20448;-48
2022/06/28 04:52:26;;;;;;;20.60;12.45;;;;;;;12.20;90.97;102083.25;5013280;28;20533;-48
2022/06/28 04:54:51;;;;;;;18.52;11.50;;;;;;;12.24;90.55;102082.41;5013134;28;20179;-48
2022/06/28 04:57:17;;;;;;;20.85;12.52;;;;;;;12.29;90.68;102081.53;5012445;28;20037;-47
2022/06/28 04:59:42;;;;;;;20.70;12.40;;;;;;;12.35;90.88;102077.59;5012901;28;20137;-50
2022/06/28 05:02:07;;;;;;;20.15;12.05;;;;;;;12.42;90.43;102085.59;5012939;28;20026;-46
2022/06/28 05:04:32;;;;;;;19.92;11.65;;;;;;;12.48;90.00;102085.28;5012140;28;20093;-46
2022/06/28 05:06:58;;;;;;;19.05;11.82;;;;;;;12.54;89.58;102088.00;5012940;28;20049;-47
2022/06/28 05:09:23;;;;;;;20.17;13.07;;;;;;;12.60;90.11;102090.47;5013081;28;20112;-47
2022/06/28 05:11:48;;;;;;;20.70;12.35;;;;;;;12.67;89.91;102095.69;5011068;28;20029;-48
2022/06/28 05:14:14;;;;;;;20.50;12.25;;;;;;;12.71;88.90;102102.31;5012340;28;20022;-48
2022/06/28 05:16:39;;;;;;;20.05;12.07;;;;;;;12.76;89.16;102098.66;5012747;28;20030;-48
2022/06/28 05:19:06;;;;;;;19.48;11.88;;;;;;;12.82;88.90;102086.41;5012486;28;20418;-51
2022/06/28 05:21:31;;;;;;;20.15;11.88;;;;;;;12.88;88.63;102093.56;5011541;28;20026;-47
2022/06/28 05:23:57;;;;;;;20.77;12.02;;;;;;;12.94;87.78;102088.78;5011599;28;20109;-50
2022/06/28 05:26:24;;;;;;;21.58;11.93;;;;;;;13.00;87.57;102089.59;5043118;28;20348;-47
2022/06/28 05:28:49;;;;;;;20.20;11.73;;;;;;;13.07;86.70;102084.50;5012667;28;20058;-47
2022/06/28 05:31:15;;;;;;;22.17;11.73;;;;;;;13.19;85.90;102084.94;5012288;28;20097;-50
2022/06/28 05:33:40;;;;;;;19.65;12.10;;;;;;;13.27;85.31;102084.31;5012532;28;20041;-48
2022/06/28 05:36:05;;;;;;;21.38;11.93;;;;;;;13.38;85.61;102087.78;5010797;28;20032;-48
2022/06/28 05:38:31;;;;;;;20.27;12.13;;;;;;;13.46;85.91;102082.75;5012149;28;20083;-49
2022/06/28 05:40:56;;;;;;;21.45;12.90;;;;;;;13.54;86.39;102084.88;5012122;28;20104;-51
2022/06/28 05:43:21;;;;;;;22.88;12.18;;;;;;;13.60;85.23;102083.69;5012033;28;20071;-51
2022/06/28 05:45:47;;;;;;;20.13;11.85;;;;;;;13.67;84.59;102083.34;5012157;28;20033;-49
2022/06/28 05:48:12;;;;;;;22.23;11.82;;;;;;;13.72;83.80;102081.31;5012285;28;20473;-49
2022/06/28 05:50:37;;;;;;;22.27;11.60;;;;;;;13.76;82.98;102084.34;5011702;28;20438;-49
2022/06/28 05:53:03;;;;;;;21.40;11.25;;;;;;;13.81;83.84;102078.69;5011748;28;20025;-49
2022/06/28 05:55:30;;;;;;;21.33;11.18;;;;;;;13.87;82.99;102077.50;5011792;28;20099;-48
2022/06/28 05:57:55;;;;;;;22.20;11.57;;;;;;;13.96;82.84;102069.31;5011661;28;20466;-48
2022/06/28 06:00:20;;;;;;;21.25;11.10;;;;;;;14.05;81.85;102072.25;5012047;28;20121;-47
2022/06/28 06:02:46;;;;;;;23.02;11.85;;;;;;;14.10;82.59;102080.53;5012012;28;20339;-49
2022/06/28 06:05:11;;;;;;;18.85;11.00;;;;;;;14.14;81.11;102076.03;5011954;28;20121;-48
2022/06/28 06:07:37;;;;;;;20.40;11.30;;;;;;;14.23;81.08;102076.16;5011977;28;20057;-49
2022/06/28 06:10:02;;;;;;;21.73;10.98;;;;;;;14.30;80.68;102070.22;5011293;28;20034;-51
2022/06/28 06:12:28;;;;;;;21.95;10.77;;;;;;;14.35;79.03;102072.94;5011809;28;20473;-49
2022/06/28 06:14:53;;;;;;;22.40;11.05;;;;;;;14.43;79.62;102077.81;5011627;28;20064;-51
2022/06/28 06:17:19;;;;;;;21.33;10.10;;;;;;;14.48;78.40;102077.72;5011220;28;20457;-51
2022/06/28 06:19:45;;;;;;;21.58;10.38;;;;;;;14.56;78.74;102075.38;5011627;28;20484;-51
2022/06/28 06:22:10;;;;;;;19.98;10.52;;;;;;;14.63;78.80;102090.59;5011753;28;20049;-51
2022/06/28 06:24:36;;;;;;;19.98;10.85;;;;;;;14.69;77.89;102093.34;5011485;28;20033;-51
2022/06/28 06:27:01;;;;;;;21.10;10.68;;;;;;;14.71;78.07;102077.97;5011213;28;20040;-50
2022/06/28 06:29:26;;;;;;;21.33;10.15;;;;;;;14.74;76.96;102094.03;5011044;28;20044;-50
2022/06/28 06:31:52;;;;;;;20.77;10.60;;;;;;;14.77;77.37;102093.44;5011559;28;20030;-48
2022/06/28 06:34:17;;;;;;;22.02;10.27;;;;;;;14.84;76.83;102093.06;5011227;28;20087;-48
2022/06/28 06:36:45;;;;;;;20.70;10.52;;;;;;;14.89;76.86;102100.50;5011043;28;20040;-52
2022/06/28 06:39:10;;;;;;;21.55;10.35;;;;;;;14.88;76.26;102096.88;5010775;28;20022;-48
2022/06/28 06:41:35;;;;;;;21.58;10.85;;;;;;;14.92;77.06;102092.34;5011045;28;20062;-48
2022/06/28 06:44:00;;;;;;;22.80;10.43;;;;;;;15.03;77.27;102092.19;5011223;28;20397;-49
2022/06/28 06:46:26;;;;;;;23.05;10.50;;;;;;;15.11;76.63;102094.25;5011424;28;20029;-51
2022/06/28 06:48:51;;;;;;;20.63;10.43;;;;;;;15.13;75.35;102106.75;5011306;28;20101;-50
2022/06/28 06:51:17;;;;;;;19.85;10.25;;;;;;;15.16;74.46;102101.69;5011191;28;20073;-51
2022/06/28 06:53:42;;;;;;;19.27;10.20;;;;;;;15.26;74.71;102101.50;5011303;28;20489;-50
2022/06/28 06:56:08;;;;;;;20.00;10.48;;;;;;;15.31;73.91;102097.81;5009310;28;20026;-51
2022/06/28 06:58:33;;;;;;;18.88;10.20;;;;;;;15.36;73.55;102101.31;5010864;28;20083;-50
2022/06/28 07:00:58;;;;;;;21.08;10.73;;;;;;;15.47;74.47;102095.56;5011095;28;20026;-50
2022/06/28 07:03:24;;;;;;;19.10;9.85;;;;;;;15.49;71.96;102110.00;5011447;28;20033;-50
2022/06/28 07:05:49;;;;;;;19.85;10.20;;;;;;;15.53;71.20;102111.88;5010655;28;20441;-51
2022/06/28 07:08:15;;;;;;;20.10;9.68;;;;;;;15.59;71.64;102107.00;5010976;28;20029;-51
2022/06/28 07:10:40;;;;;;;18.50;9.07;;;;;;;15.66;70.65;102103.81;5010883;28;20080;-51
2022/06/28 07:13:05;;;;;;;21.70;9.50;;;;;;;15.74;69.58;102101.13;5010812;28;20378;-51
2022/06/28 07:15:31;;;;;;;19.77;8.80;;;;;;;15.80;68.67;102112.16;5011022;28;20022;-51
2022/06/28 07:17:56;;;;;;;19.95;9.20;;;;;;;15.88;69.06;102112.31;5010975;28;20044;-51
2022/06/28 07:20:22;;;;;;;19.38;9.70;;;;;;;16.00;70.07;102114.56;5010883;28;20242;-51
2022/06/28 07:22:47;;;;;;;21.58;10.10;;;;;;;16.09;70.45;102111.03;5010633;28;20022;-51
2022/06/28 07:25:13;;;;;;;21.55;9.77;;;;;;;16.19;71.40;102103.25;5010659;28;20046;-47
2022/06/28 07:27:39;;;;;;;18.48;9.80;;;;;;;16.29;71.15;102112.53;5011348;28;20034;-57
2022/06/28 07:30:04;;;;;;;18.92;9.60;;;;;;;16.40;71.62;102115.91;5014955;28;20025;-51
2022/06/28 07:32:30;;;;;;;19.77;10.10;;;;;;;16.49;71.89;102117.63;5014749;28;20030;-48
2022/06/28 07:34:55;;;;;;;20.02;10.52;;;;;;;16.57;69.84;102109.66;5013733;28;20038;-50
2022/06/28 07:37:20;;;;;;;19.55;8.88;;;;;;;16.64;67.56;102110.03;5013160;28;20104;-49
2022/06/28 07:39:46;;;;;;;19.48;9.18;;;;;;;16.61;65.27;102103.13;5012943;28;20409;-48
2022/06/28 07:42:11;;;;;;;17.85;8.63;;;;;;;16.56;62.36;102116.38;5013755;28;20022;-51
2022/06/28 07:44:36;;;;;;;20.33;8.93;;;;;;;16.52;62.63;102116.19;5013039;28;20026;-51
2022/06/28 07:47:02;;;;;;;20.13;8.77;;;;;;;16.64;65.24;102110.84;4998878;28;20034;-50
2022/06/28 07:52:33;;;;;;;20.80;9.13;;;;;;;16.66;63.83;102110.56;4992221;28;20159;-49
2022/06/28 07:54:56;;;;;;;20.02;9.63;;;;;;;16.77;64.22;102106.34;5012169;28;20477;-50
2022/06/28 07:57:22;;;;;;;19.67;10.30;;;;;;;16.85;66.74;102107.56;5012443;28;20486;-52
2022/06/28 07:59:47;;;;;;;19.42;8.63;;;;;;;16.90;61.09;102101.84;5012025;28;20026;-48
2022/06/28 08:02:12;;;;;;;18.02;8.63;;;;;;;16.98;60.84;102103.06;5012129;28;20060;-50
2022/06/28 08:04:37;;;;;;;16.20;9.02;;;;;;;17.10;61.55;102106.09;5010205;28;20033;-50
2022/06/28 08:07:03;;;;;;;15.88;8.15;;;;;;;17.14;60.00;102100.69;5010822;28;20034;-50
2022/06/28 08:09:28;;;;;;;16.90;8.27;;;;;;;17.17;59.29;102100.06;5012333;28;20038;-52
2022/06/28 08:11:53;;;;;;;19.02;8.30;;;;;;;17.21;59.45;102092.66;5027109;28;20101;-50
2022/06/28 08:14:19;;;;;;;17.85;8.45;;;;;;;17.36;62.10;102097.00;5011996;28;20442;-51
2022/06/28 08:16:44;;;;;;;20.48;8.50;;;;;;;17.41;61.00;102093.25;5011767;28;20073;-48
2022/06/28 08:19:09;;;;;;;16.40;8.70;;;;;;;17.40;61.77;102089.63;5011640;28;20060;-48
2022/06/28 08:21:37;;;;;;;19.20;8.80;;;;;;;17.48;62.00;102099.19;5009690;28;20041;-51
2022/06/28 08:24:02;;;;;;;17.65;8.65;;;;;;;17.65;62.96;102092.03;5011453;28;20033;-49
2022/06/28 08:26:28;;;;;;;16.35;8.65;;;;;;;17.74;62.25;102093.69;5011270;28;20030;-50
2022/06/28 08:28:53;;;;;;;20.33;8.57;;;;;;;17.82;59.60;102088.44;5010295;28;20420;-48
2022/06/28 08:31:18;;;;;;;18.27;8.48;;;;;;;17.97;59.89;102092.78;5011236;28;20071;-48
2022/06/28 08:33:44;;;;;;;14.93;8.05;;;;;;;18.03;57.17;102091.50;5010758;28;20049;-49
2022/06/28 08:36:09;;;;;;;16.05;8.70;;;;;;;18.10;57.21;102083.44;5010922;28;20041;-48
2022/06/28 08:38:34;;;;;;;16.67;8.77;;;;;;;18.18;57.97;102079.00;5011320;28;20026;-48
2022/06/28 08:41:00;;;;;;;16.73;8.75;;;;;;;18.28;58.36;102075.03;5010120;28;20095;-51
2022/06/28 08:43:26;;;;;;;17.40;9.38;;;;;;;18.34;56.98;102073.69;5011313;28;20021;-48
2022/06/28 08:45:52;;;;;;;17.00;8.43;;;;;;;18.40;56.22;102072.41;5011414;28;20389;-51
2022/06/28 08:48:22;;;;;;;18.35;9.18;;;;;;;18.47;56.80;102063.47;5010695;28;20034;-48
2022/06/28 08:50:52;;;;;;;16.98;8.90;;;;;;;18.55;57.01;102057.88;5011046;28;20026;-48
2022/06/28 08:53:21;;;;;;;17.65;8.40;;;;;;;18.60;54.40;102051.28;5010971;28;20175;-48
2022/06/28 08:55:47;;;;;;;14.98;8.40;;;;;;;18.61;53.92;102046.50;5011324;28;20518;-48
2022/06/28 08:58:12;;;;;;;17.20;8.30;;;;;;;18.65;53.69;102053.06;5010903;28;20036;-48
2022/06/28 09:00:38;;;;;;;14.45;8.60;;;;;;;18.64;52.57;102054.22;5010614;28;20026;-48
2022/06/28 09:03:03;;;;;;;17.40;8.10;;;;;;;18.71;54.06;102054.53;5010568;28;20088;-49
2022/06/28 09:05:29;;;;;;;14.43;8.18;;;;;;;18.87;53.97;102057.66;5008045;28;20337;-49
2022/06/28 09:07:56;;;;;;;14.35;8.40;;;;;;;18.95;52.92;102056.03;5011034;28;20037;-48
2022/06/28 09:10:21;;;;;;;16.33;8.25;;;;;;;19.06;52.07;102053.66;5010708;28;20091;-48
2022/06/28 09:12:54;;;;;;;13.95;7.95;;;;;;;19.13;51.26;102054.81;5010838;28;20450;-49
2022/06/28 09:15:24;;;;;;;16.90;8.52;;;;;;;19.17;52.66;102046.53;5010887;28;20072;-51
2022/06/28 09:17:54;;;;;;;17.27;8.60;;;;;;;19.39;54.73;102042.63;5010049;28;20062;-50
2022/06/28 09:20:19;;;;;;;13.73;8.18;;;;;;;19.43;53.12;102049.22;5010105;28;20066;-51
2022/06/28 09:22:45;;;;;;;14.75;8.60;;;;;;;19.48;51.48;102042.59;5010256;28;20037;-47
2022/06/28 09:25:28;;;;;;;16.15;8.30;;;;;;;19.54;53.79;102046.03;5010180;28;20025;-48
2022/06/28 09:27:59;;;;;;;14.40;8.20;;;;;;;19.55;51.89;102037.28;5010218;28;20108;-49
2022/06/28 09:30:27;;;;;;;12.85;8.15;;;;;;;19.66;52.07;102037.69;5009920;28;20113;-50
2022/06/28 09:32:53;;;;;;;14.30;7.82;;;;;;;19.82;50.75;102039.94;5010312;28;20471;-49
2022/06/28 09:35:18;;;;;;;13.60;7.60;;;;;;;19.78;48.49;102037.78;5010271;28;20095;-48
2022/06/28 09:37:52;;;;;;;13.13;7.72;;;;;;;19.78;49.08;102034.97;5010099;28;20030;-48
2022/06/28 09:40:43;;;;;;;14.40;7.70;;;;;;;19.98;51.90;102031.75;5010099;28;20069;-48
2022/06/28 09:43:14;;;;;;;11.73;8.13;;;;;;;19.92;48.98;102029.13;5008658;28;20041;-48
2022/06/28 09:45:46;;;;;;;11.68;7.60;;;;;;;19.86;48.96;102029.66;5010051;28;20150;-50
2022/06/28 09:48:19;;;;;;;15.63;8.20;;;;;;;19.98;50.64;102026.94;5010073;28;20030;-51
2022/06/28 09:50:46;;;;;;;12.50;7.60;;;;;;;20.15;50.85;102026.00;5009809;28;20095;-48
2022/06/28 09:53:15;;;;;;;13.43;8.10;;;;;;;20.29;49.43;102016.44;5009910;28;20083;-49
2022/06/28 09:55:42;;;;;;;14.65;7.90;;;;;;;20.42;49.72;102018.13;5009515;28;20030;-52
2022/06/28 09:58:09;;;;;;;14.68;8.00;;;;;;;20.47;48.71;102020.72;5009621;28;20026;-49
2022/06/28 10:00:39;;;;;;;14.10;7.90;;;;;;;20.38;47.74;102011.56;5009497;28;20026;-49
2022/06/28 10:03:05;;;;;;;15.55;7.90;;;;;;;20.40;48.51;102001.59;5009834;28;20072;-49
2022/06/28 10:05:31;;;;;;;12.55;7.60;;;;;;;20.51;48.77;102002.00;5009090;28;20026;-48
2022/06/28 10:07:58;;;;;;;14.38;8.00;;;;;;;20.64;48.80;102000.06;5010063;28;20352;-50
2022/06/28 10:10:24;;;;;;;13.10;7.53;;;;;;;20.64;48.11;102004.88;5009838;28;20030;-49
2022/06/28 10:15:36;;;;;;;16.05;7.90;;;;;;;20.82;48.11;102009.16;5010639;28;20421;-51
2022/06/28 10:18:09;;;;;;;15.75;7.93;;;;;;;20.92;48.83;102005.06;5009136;28;20026;-47
2022/06/28 10:20:39;;;;;;;14.15;7.70;;;;;;;21.08;49.72;101995.91;5009252;28;20084;-50
2022/06/28 10:23:23;;;;;;;13.38;7.70;;;;;;;21.31;50.91;102001.91;5009447;28;20498;-50
2022/06/28 10:26:15;;;;;;;13.07;7.72;;;;;;;21.45;49.30;101995.91;5009389;28;20021;-50
2022/06/28 10:29:00;;;;;;;14.93;8.10;;;;;;;21.36;47.57;101990.41;5007617;28;20056;-50
2022/06/28 10:31:25;;;;;;;14.45;7.60;;;;;;;21.47;47.92;101990.75;5008697;28;20068;-49
2022/06/28 10:34:03;;;;;;;14.82;8.25;;;;;;;21.57;49.40;101995.91;5008877;28;20450;-49
2022/06/28 10:36:44;;;;;;;14.93;8.15;;;;;;;21.57;47.97;101981.81;5009285;28;20501;-49
2022/06/28 10:39:12;;;;;;;14.07;7.60;;;;;;;21.58;46.74;101982.66;5008968;28;20037;-52
2022/06/28 10:42:05;;;;;;;14.50;7.85;;;;;;;21.54;46.72;101976.09;5008795;28;20030;-49
2022/06/28 10:44:31;;;;;;;13.17;8.30;;;;;;;21.52;47.02;101976.44;5008563;28;20060;-51
2022/06/28 10:47:05;;;;;;;11.57;7.70;;;;;;;21.51;46.97;101974.81;5008856;28;20135;-52
2022/06/28 10:49:42;;;;;;;13.93;8.23;;;;;;;21.67;48.13;101969.28;5008874;28;20041;-48
2022/06/28 10:52:14;;;;;;;17.05;8.80;;;;;;;21.88;48.79;101974.75;5008570;28;20431;-51
2022/06/28 10:54:42;;;;;;;9.52;7.50;;;;;;;21.96;47.21;101959.69;5008515;28;20514;-52
2022/06/28 10:57:20;;;;;;;11.32;7.82;;;;;;;22.22;48.66;101964.03;5008753;28;20466;-49
2022/06/28 10:59:48;;;;;;;14.35;8.00;;;;;;;22.24;44.91;101963.69;5008338;28;20062;-49
2022/06/28 11:02:14;;;;;;;10.68;7.72;;;;;;;22.40;46.44;101958.94;5023065;28;20030;-50
2022/06/28 11:04:39;;;;;;;15.55;8.10;;;;;;;22.50;45.68;101945.50;5007185;28;20036;-51
2022/06/28 11:07:20;;;;;;;16.42;7.70;;;;;;;22.47;45.20;101949.03;5008466;28;20414;-50
2022/06/28 11:10:00;;;;;;;17.08;8.40;;;;;;;22.42;45.47;101956.59;5009470;28;20049;-49
2022/06/28 11:12:29;;;;;;;16.10;8.10;;;;;;;22.57;46.89;101943.69;5008688;28;20441;-51
2022/06/28 11:14:57;;;;;;;13.98;8.07;;;;;;;22.61;44.82;101929.69;5009051;28;20088;-50
2022/06/28 11:17:37;;;;;;;14.70;8.10;;;;;;;22.69;44.23;101927.84;5008593;28;20040;-50
2022/06/28 11:20:04;;;;;;;15.07;8.25;;;;;;;22.74;43.56;101921.94;5008242;28;20046;-52
2022/06/28 11:22:49;;;;;;;16.17;7.97;;;;;;;22.50;43.63;101920.91;5008585;28;20029;-51